Meeham, Mississippi
Current Conditions -  °F | °C
As of 3:58 PM on Wednesday 22 Oct 2014 (Local Time) from KMEI Reporting Station
Clear Clear  
Wind Chill: 72°   Ceiling: Unl
Heat Index: 72°   Visibility: 10mi
Dew Point: 42°   Wind: 9mph
Humidity: 34%   Direction: 40°NE
Pressure: 30.09"   Gusts: NA
Location:  32.3221°N, 88.5771°W
Report Text: KMEI 222058Z 04008KT 10SM CLR 22/06 A3009 RMK AO2 SLP186 T02220056 56015
Loading
Personal Weather Stations






























Interactive Weather Map
Tropical Storm Tracking
New forecast layout! Learn more

10-Day Weather Forecast

Advertisements
Track Severe Weather on mobile